Rare Metals, Arizona
Current Conditions -  °F | °C
As of 2:54 AM on Thursday 29 Jan 2015 (Local Time) from KGCN Reporting Station
Scattered Clouds Scattered Clouds  
Wind Chill: 36°   Ceiling: Unl
Heat Index: 41°   Visibility: 10mi
Dew Point: 30°   Wind: 8mph
Humidity: 65%   Direction: 60°ENE
Pressure: 30.27"   Gusts: NA
Location:  35.9808°N, 111.359°W
Report Text: KGCN 290954Z 06007KT 10SM SCT120 05/M01 A3027 RMK AO2 SLP207 T00501011
Loading
Personal Weather Stations






























Interactive Weather Map New forecast layout! Learn more

10-Day Weather Forecast

Advertisements
Track Severe Weather on mobile